sensor_id;sensor_type;location;lat;lon;timestamp;temperature;humidity
52381;DHT22;38310;52.796;6.942;2023-06-14T00:01:37;16.20;90.20
52381;DHT22;38310;52.796;6.942;2023-06-14T00:04:03;16.20;90.30
52381;DHT22;38310;52.796;6.942;2023-06-14T00:06:31;16.10;90.60
52381;DHT22;38310;52.796;6.942;2023-06-14T00:08:56;16.00;90.80
52381;DHT22;38310;52.796;6.942;2023-06-14T00:11:22;16.00;90.90
52381;DHT22;38310;52.796;6.942;2023-06-14T00:13:48;15.90;91.00
52381;DHT22;38310;52.796;6.942;2023-06-14T00:16:14;15.90;91.20
52381;DHT22;38310;52.796;6.942;2023-06-14T00:18:39;15.80;91.60
52381;DHT22;38310;52.796;6.942;2023-06-14T00:21:05;15.70;91.80
52381;DHT22;38310;52.796;6.942;2023-06-14T00:23:31;15.70;92.10
52381;DHT22;38310;52.796;6.942;2023-06-14T00:25:57;15.60;92.40
52381;DHT22;38310;52.796;6.942;2023-06-14T00:28:22;15.60;92.70
52381;DHT22;38310;52.796;6.942;2023-06-14T00:30:48;15.50;93.00
52381;DHT22;38310;52.796;6.942;2023-06-14T00:33:14;15.50;93.10
52381;DHT22;38310;52.796;6.942;2023-06-14T00:35:39;15.40;93.50
52381;DHT22;38310;52.796;6.942;2023-06-14T00:38:05;15.40;93.80
52381;DHT22;38310;52.796;6.942;2023-06-14T00:40:31;15.30;94.50
52381;DHT22;38310;52.796;6.942;2023-06-14T00:42:56;15.20;94.90
52381;DHT22;38310;52.796;6.942;2023-06-14T00:45:22;15.10;95.50
52381;DHT22;38310;52.796;6.942;2023-06-14T00:47:48;15.10;96.20
52381;DHT22;38310;52.796;6.942;2023-06-14T00:50:20;15.00;96.80
52381;DHT22;38310;52.796;6.942;2023-06-14T00:52:46;15.00;97.10
52381;DHT22;38310;52.796;6.942;2023-06-14T00:55:12;14.90;97.40
52381;DHT22;38310;52.796;6.942;2023-06-14T00:57:39;14.90;97.80
52381;DHT22;38310;52.796;6.942;2023-06-14T01:00:05;14.80;98.40
52381;DHT22;38310;52.796;6.942;2023-06-14T01:02:36;14.80;98.60
52381;DHT22;38310;52.796;6.942;2023-06-14T01:05:02;14.50;99.00
52381;DHT22;38310;52.796;6.942;2023-06-14T01:07:43;14.70;99.70
52381;DHT22;38310;52.796;6.942;2023-06-14T01:10:35;14.70;99.90
52381;DHT22;38310;52.796;6.942;2023-06-14T01:13:16;14.60;99.90
52381;DHT22;38310;52.796;6.942;2023-06-14T01:15:44;14.60;99.90
52381;DHT22;38310;52.796;6.942;2023-06-14T01:18:10;14.60;99.90
52381;DHT22;38310;52.796;6.942;2023-06-14T01:20:46;14.60;99.90
52381;DHT22;38310;52.796;6.942;2023-06-14T01:23:19;14.50;99.90
52381;DHT22;38310;52.796;6.942;2023-06-14T01:25:45;14.50;99.90
52381;DHT22;38310;52.796;6.942;2023-06-14T01:28:13;14.40;99.90
52381;DHT22;38310;52.796;6.942;2023-06-14T01:30:43;14.40;99.90
52381;DHT22;38310;52.796;6.942;2023-06-14T01:33:26;14.30;99.90
52381;DHT22;38310;52.796;6.942;2023-06-14T01:35:53;14.30;99.90
52381;DHT22;38310;52.796;6.942;2023-06-14T01:38:23;14.30;99.90
52381;DHT22;38310;52.796;6.942;2023-06-14T01:40:50;14.20;99.90
52381;DHT22;38310;52.796;6.942;2023-06-14T01:43:18;14.20;99.90
52381;DHT22;38310;52.796;6.942;2023-06-14T01:45:47;14.10;99.90
52381;DHT22;38310;52.796;6.942;2023-06-14T01:48:13;14.10;99.90
52381;DHT22;38310;52.796;6.942;2023-06-14T01:50:39;14.00;99.90
52381;DHT22;38310;52.796;6.942;2023-06-14T01:53:09;14.00;99.90
52381;DHT22;38310;52.796;6.942;2023-06-14T01:55:35;14.00;99.90
52381;DHT22;38310;52.796;6.942;2023-06-14T01:58:06;13.90;99.90
52381;DHT22;38310;52.796;6.942;2023-06-14T02:00:32;13.90;99.90
52381;DHT22;38310;52.796;6.942;2023-06-14T02:02:58;13.80;99.90
52381;DHT22;38310;52.796;6.942;2023-06-14T02:05:24;13.80;99.90
52381;DHT22;38310;52.796;6.942;2023-06-14T02:07:49;13.70;99.90
52381;DHT22;38310;52.796;6.942;2023-06-14T02:10:16;13.70;99.90
52381;DHT22;38310;52.796;6.942;2023-06-14T02:12:43;13.70;99.90
52381;DHT22;38310;52.796;6.942;2023-06-14T02:15:09;13.70;99.90
52381;DHT22;38310;52.796;6.942;2023-06-14T02:17:46;13.60;99.90
52381;DHT22;38310;52.796;6.942;2023-06-14T02:20:13;13.60;99.90
52381;DHT22;38310;52.796;6.942;2023-06-14T02:22:39;13.60;99.90
52381;DHT22;38310;52.796;6.942;2023-06-14T02:25:05;13.60;99.90
52381;DHT22;38310;52.796;6.942;2023-06-14T02:27:33;13.60;99.90
52381;DHT22;38310;52.796;6.942;2023-06-14T02:29:59;13.50;99.90
52381;DHT22;38310;52.796;6.942;2023-06-14T02:32:25;13.60;99.90
52381;DHT22;38310;52.796;6.942;2023-06-14T02:34:53;13.50;99.90
52381;DHT22;38310;52.796;6.942;2023-06-14T02:37:19;13.60;99.90
52381;DHT22;38310;52.796;6.942;2023-06-14T02:39:45;13.50;99.90
52381;DHT22;38310;52.796;6.942;2023-06-14T02:42:11;13.50;99.90
52381;DHT22;38310;52.796;6.942;2023-06-14T02:44:36;13.50;99.90
52381;DHT22;38310;52.796;6.942;2023-06-14T02:47:03;13.50;99.90
52381;DHT22;38310;52.796;6.942;2023-06-14T02:49:29;13.50;99.90
52381;DHT22;38310;52.796;6.942;2023-06-14T02:51:55;13.50;99.90
52381;DHT22;38310;52.796;6.942;2023-06-14T02:54:21;13.50;99.90
52381;DHT22;38310;52.796;6.942;2023-06-14T02:56:47;13.50;99.90
52381;DHT22;38310;52.796;6.942;2023-06-14T02:59:12;13.50;99.90
52381;DHT22;38310;52.796;6.942;2023-06-14T03:01:40;13.50;99.90
52381;DHT22;38310;52.796;6.942;2023-06-14T03:04:09;13.50;99.90
52381;DHT22;38310;52.796;6.942;2023-06-14T03:06:35;13.50;99.90
52381;DHT22;38310;52.796;6.942;2023-06-14T03:09:02;13.50;99.90
52381;DHT22;38310;52.796;6.942;2023-06-14T03:11:33;13.50;99.90
52381;DHT22;38310;52.796;6.942;2023-06-14T03:13:59;13.50;99.90
52381;DHT22;38310;52.796;6.942;2023-06-14T03:16:25;13.50;99.90
52381;DHT22;38310;52.796;6.942;2023-06-14T03:18:54;13.50;99.90
52381;DHT22;38310;52.796;6.942;2023-06-14T03:21:20;13.50;99.90
52381;DHT22;38310;52.796;6.942;2023-06-14T03:23:46;13.50;99.90
52381;DHT22;38310;52.796;6.942;2023-06-14T03:26:12;13.50;99.90
52381;DHT22;38310;52.796;6.942;2023-06-14T03:28:40;13.50;99.90
52381;DHT22;38310;52.796;6.942;2023-06-14T03:31:05;13.50;99.90
52381;DHT22;38310;52.796;6.942;2023-06-14T03:33:32;13.50;99.90
52381;DHT22;38310;52.796;6.942;2023-06-14T03:35:58;13.50;99.90
52381;DHT22;38310;52.796;6.942;2023-06-14T03:38:23;13.50;99.90
52381;DHT22;38310;52.796;6.942;2023-06-14T03:40:49;13.50;99.90
52381;DHT22;38310;52.796;6.942;2023-06-14T03:43:15;13.50;99.90
52381;DHT22;38310;52.796;6.942;2023-06-14T03:45:40;13.50;99.90
52381;DHT22;38310;52.796;6.942;2023-06-14T03:48:06;13.40;99.90
52381;DHT22;38310;52.796;6.942;2023-06-14T03:50:34;13.50;99.90
52381;DHT22;38310;52.796;6.942;2023-06-14T03:53:00;13.50;99.90
52381;DHT22;38310;52.796;6.942;2023-06-14T03:55:26;13.50;99.90
52381;DHT22;38310;52.796;6.942;2023-06-14T03:57:53;13.50;99.90
52381;DHT22;38310;52.796;6.942;2023-06-14T04:00:19;13.50;99.90
52381;DHT22;38310;52.796;6.942;2023-06-14T04:02:45;13.60;99.90
52381;DHT22;38310;52.796;6.942;2023-06-14T04:05:11;13.60;99.90
52381;DHT22;38310;52.796;6.942;2023-06-14T04:07:36;13.50;99.90
52381;DHT22;38310;52.796;6.942;2023-06-14T04:10:07;13.50;99.90
52381;DHT22;38310;52.796;6.942;2023-06-14T04:12:36;13.50;99.90
52381;DHT22;38310;52.796;6.942;2023-06-14T04:15:02;13.60;99.90
52381;DHT22;38310;52.796;6.942;2023-06-14T04:17:31;13.60;99.90
52381;DHT22;38310;52.796;6.942;2023-06-14T04:20:02;13.60;99.90
52381;DHT22;38310;52.796;6.942;2023-06-14T04:22:30;13.60;99.90
52381;DHT22;38310;52.796;6.942;2023-06-14T04:24:57;13.60;99.90
52381;DHT22;38310;52.796;6.942;2023-06-14T04:27:23;13.70;99.90
52381;DHT22;38310;52.796;6.942;2023-06-14T04:29:55;13.70;99.90
52381;DHT22;38310;52.796;6.942;2023-06-14T04:32:25;13.70;99.90
52381;DHT22;38310;52.796;6.942;2023-06-14T04:34:55;13.80;99.90
52381;DHT22;38310;52.796;6.942;2023-06-14T04:37:23;13.80;99.90
52381;DHT22;38310;52.796;6.942;2023-06-14T04:39:49;13.90;99.90
52381;DHT22;38310;52.796;6.942;2023-06-14T04:42:16;13.90;99.90
52381;DHT22;38310;52.796;6.942;2023-06-14T04:44:42;14.00;99.90
52381;DHT22;38310;52.796;6.942;2023-06-14T04:47:10;14.10;99.90
52381;DHT22;38310;52.796;6.942;2023-06-14T04:49:38;14.10;99.90
52381;DHT22;38310;52.796;6.942;2023-06-14T04:52:04;14.20;99.90
52381;DHT22;38310;52.796;6.942;2023-06-14T04:54:30;14.30;99.90
52381;DHT22;38310;52.796;6.942;2023-06-14T04:56:57;14.30;99.90
52381;DHT22;38310;52.796;6.942;2023-06-14T04:59:23;14.40;99.90
52381;DHT22;38310;52.796;6.942;2023-06-14T05:01:49;14.50;99.90
52381;DHT22;38310;52.796;6.942;2023-06-14T05:04:18;14.60;99.90
52381;DHT22;38310;52.796;6.942;2023-06-14T05:06:45;14.70;99.90
52381;DHT22;38310;52.796;6.942;2023-06-14T05:09:13;14.70;99.90
52381;DHT22;38310;52.796;6.942;2023-06-14T05:11:38;14.80;99.90
52381;DHT22;38310;52.796;6.942;2023-06-14T05:14:05;14.90;99.90
52381;DHT22;38310;52.796;6.942;2023-06-14T05:16:31;14.90;99.90
52381;DHT22;38310;52.796;6.942;2023-06-14T05:18:57;15.00;99.90
52381;DHT22;38310;52.796;6.942;2023-06-14T05:21:23;15.10;99.90
52381;DHT22;38310;52.796;6.942;2023-06-14T05:23:49;15.20;99.90
52381;DHT22;38310;52.796;6.942;2023-06-14T05:26:16;15.00;99.90
52381;DHT22;38310;52.796;6.942;2023-06-14T05:28:42;15.30;99.90
52381;DHT22;38310;52.796;6.942;2023-06-14T05:31:07;15.40;99.90
52381;DHT22;38310;52.796;6.942;2023-06-14T05:33:33;15.50;99.90
52381;DHT22;38310;52.796;6.942;2023-06-14T05:35:59;15.60;99.90
52381;DHT22;38310;52.796;6.942;2023-06-14T05:38:24;15.70;99.90
52381;DHT22;38310;52.796;6.942;2023-06-14T05:40:51;15.80;99.90
52381;DHT22;38310;52.796;6.942;2023-06-14T05:43:17;15.90;99.90
52381;DHT22;38310;52.796;6.942;2023-06-14T05:45:42;16.00;99.90
52381;DHT22;38310;52.796;6.942;2023-06-14T05:48:08;16.20;99.90
52381;DHT22;38310;52.796;6.942;2023-06-14T05:50:34;16.30;99.90
52381;DHT22;38310;52.796;6.942;2023-06-14T05:52:59;16.40;99.90
52381;DHT22;38310;52.796;6.942;2023-06-14T05:55:25;16.60;99.90
52381;DHT22;38310;52.796;6.942;2023-06-14T05:57:51;16.70;99.90
52381;DHT22;38310;52.796;6.942;2023-06-14T06:00:17;16.90;99.90
52381;DHT22;38310;52.796;6.942;2023-06-14T06:02:44;17.10;99.90
52381;DHT22;38310;52.796;6.942;2023-06-14T06:05:13;17.10;99.90
52381;DHT22;38310;52.796;6.942;2023-06-14T06:07:41;17.30;99.90
52381;DHT22;38310;52.796;6.942;2023-06-14T06:10:07;17.50;99.90
52381;DHT22;38310;52.796;6.942;2023-06-14T06:12:33;17.70;99.90
52381;DHT22;38310;52.796;6.942;2023-06-14T06:14:59;17.80;99.90
52381;DHT22;38310;52.796;6.942;2023-06-14T06:17:25;17.90;99.90
52381;DHT22;38310;52.796;6.942;2023-06-14T06:19:51;18.10;99.90
52381;DHT22;38310;52.796;6.942;2023-06-14T06:22:17;18.20;99.90
52381;DHT22;38310;52.796;6.942;2023-06-14T06:24:43;18.40;99.90
52381;DHT22;38310;52.796;6.942;2023-06-14T06:27:09;18.50;99.90
52381;DHT22;38310;52.796;6.942;2023-06-14T06:29:35;18.70;99.90
52381;DHT22;38310;52.796;6.942;2023-06-14T06:32:01;18.80;99.90
52381;DHT22;38310;52.796;6.942;2023-06-14T06:34:27;18.90;99.90
52381;DHT22;38310;52.796;6.942;2023-06-14T06:36:53;19.10;99.90
52381;DHT22;38310;52.796;6.942;2023-06-14T06:39:18;19.20;99.90
52381;DHT22;38310;52.796;6.942;2023-06-14T06:41:44;19.40;99.90
52381;DHT22;38310;52.796;6.942;2023-06-14T06:44:10;19.50;99.90
52381;DHT22;38310;52.796;6.942;2023-06-14T06:46:36;19.70;99.90
52381;DHT22;38310;52.796;6.942;2023-06-14T06:49:06;19.70;99.90
52381;DHT22;38310;52.796;6.942;2023-06-14T06:51:32;19.90;99.90
52381;DHT22;38310;52.796;6.942;2023-06-14T06:53:58;20.00;99.90
52381;DHT22;38310;52.796;6.942;2023-06-14T06:56:24;20.00;99.90
52381;DHT22;38310;52.796;6.942;2023-06-14T06:58:54;20.20;99.90
52381;DHT22;38310;52.796;6.942;2023-06-14T07:01:19;20.20;99.90
52381;DHT22;38310;52.796;6.942;2023-06-14T07:03:45;20.40;99.90
52381;DHT22;38310;52.796;6.942;2023-06-14T07:06:11;20.40;99.90
52381;DHT22;38310;52.796;6.942;2023-06-14T07:08:38;20.60;99.90
52381;DHT22;38310;52.796;6.942;2023-06-14T07:11:06;20.70;99.90
52381;DHT22;38310;52.796;6.942;2023-06-14T07:13:32;20.80;99.90
52381;DHT22;38310;52.796;6.942;2023-06-14T07:15:59;20.90;99.90
52381;DHT22;38310;52.796;6.942;2023-06-14T07:18:28;21.10;99.90
52381;DHT22;38310;52.796;6.942;2023-06-14T07:20:54;21.20;99.90
52381;DHT22;38310;52.796;6.942;2023-06-14T07:23:20;21.30;99.90
52381;DHT22;38310;52.796;6.942;2023-06-14T07:25:46;21.50;99.90
52381;DHT22;38310;52.796;6.942;2023-06-14T07:28:12;21.60;99.90
52381;DHT22;38310;52.796;6.942;2023-06-14T07:30:38;21.70;99.90
52381;DHT22;38310;52.796;6.942;2023-06-14T07:33:03;21.70;99.90
52381;DHT22;38310;52.796;6.942;2023-06-14T07:35:29;21.80;99.90
52381;DHT22;38310;52.796;6.942;2023-06-14T07:37:55;22.00;99.80
52381;DHT22;38310;52.796;6.942;2023-06-14T07:40:21;22.10;99.20
52381;DHT22;38310;52.796;6.942;2023-06-14T07:42:47;22.20;98.70
52381;DHT22;38310;52.796;6.942;2023-06-14T07:45:16;22.20;98.30
52381;DHT22;38310;52.796;6.942;2023-06-14T07:47:42;22.30;97.20
52381;DHT22;38310;52.796;6.942;2023-06-14T07:50:08;22.40;97.50
52381;DHT22;38310;52.796;6.942;2023-06-14T07:52:33;22.30;96.70
52381;DHT22;38310;52.796;6.942;2023-06-14T07:54:59;22.50;96.80
52381;DHT22;38310;52.796;6.942;2023-06-14T07:57:26;22.60;96.80
52381;DHT22;38310;52.796;6.942;2023-06-14T07:59:52;22.70;96.50
52381;DHT22;38310;52.796;6.942;2023-06-14T08:02:18;22.60;95.70
52381;DHT22;38310;52.796;6.942;2023-06-14T08:04:43;22.70;95.30
52381;DHT22;38310;52.796;6.942;2023-06-14T08:07:09;22.60;95.20
52381;DHT22;38310;52.796;6.942;2023-06-14T08:09:35;22.70;95.10
52381;DHT22;38310;52.796;6.942;2023-06-14T08:12:05;22.70;94.90
52381;DHT22;38310;52.796;6.942;2023-06-14T08:14:33;22.90;94.80
52381;DHT22;38310;52.796;6.942;2023-06-14T08:16:59;23.10;95.00
52381;DHT22;38310;52.796;6.942;2023-06-14T08:19:25;23.30;94.40
52381;DHT22;38310;52.796;6.942;2023-06-14T08:21:51;23.40;93.90
52381;DHT22;38310;52.796;6.942;2023-06-14T08:24:16;23.40;93.40
52381;DHT22;38310;52.796;6.942;2023-06-14T08:26:43;23.50;93.10
52381;DHT22;38310;52.796;6.942;2023-06-14T08:29:08;23.50;92.50
52381;DHT22;38310;52.796;6.942;2023-06-14T08:31:34;23.50;92.10
52381;DHT22;38310;52.796;6.942;2023-06-14T08:34:00;23.60;92.30
52381;DHT22;38310;52.796;6.942;2023-06-14T08:36:26;23.60;92.00
52381;DHT22;38310;52.796;6.942;2023-06-14T08:38:51;23.80;92.30
52381;DHT22;38310;52.796;6.942;2023-06-14T08:41:21;23.90;92.10
52381;DHT22;38310;52.796;6.942;2023-06-14T08:43:51;23.90;90.90
52381;DHT22;38310;52.796;6.942;2023-06-14T08:46:18;24.00;90.80
52381;DHT22;38310;52.796;6.942;2023-06-14T08:48:51;24.10;90.40
52381;DHT22;38310;52.796;6.942;2023-06-14T08:51:21;24.10;90.70
52381;DHT22;38310;52.796;6.942;2023-06-14T08:53:55;24.20;90.70
52381;DHT22;38310;52.796;6.942;2023-06-14T08:56:25;24.30;90.50
52381;DHT22;38310;52.796;6.942;2023-06-14T08:58:51;24.30;90.50
52381;DHT22;38310;52.796;6.942;2023-06-14T09:01:18;24.40;90.60
52381;DHT22;38310;52.796;6.942;2023-06-14T09:03:45;24.80;90.60
52381;DHT22;38310;52.796;6.942;2023-06-14T09:06:11;24.80;89.40
52381;DHT22;38310;52.796;6.942;2023-06-14T09:08:46;24.70;89.70
52381;DHT22;38310;52.796;6.942;2023-06-14T09:11:14;24.90;89.70
52381;DHT22;38310;52.796;6.942;2023-06-14T09:13:41;25.10;89.20
52381;DHT22;38310;52.796;6.942;2023-06-14T09:16:08;24.90;88.30
52381;DHT22;38310;52.796;6.942;2023-06-14T09:18:53;24.80;87.60
52381;DHT22;38310;52.796;6.942;2023-06-14T09:21:19;25.10;87.20
52381;DHT22;38310;52.796;6.942;2023-06-14T09:23:47;25.30;87.80
52381;DHT22;38310;52.796;6.942;2023-06-14T09:26:15;25.30;85.60
52381;DHT22;38310;52.796;6.942;2023-06-14T09:31:07;25.60;84.70
52381;DHT22;38310;52.796;6.942;2023-06-14T09:33:35;25.60;84.60
52381;DHT22;38310;52.796;6.942;2023-06-14T09:36:01;25.70;83.90
52381;DHT22;38310;52.796;6.942;2023-06-14T09:38:27;25.70;83.90
52381;DHT22;38310;52.796;6.942;2023-06-14T09:40:52;25.70;83.20
52381;DHT22;38310;52.796;6.942;2023-06-14T09:43:19;25.70;83.40
52381;DHT22;38310;52.796;6.942;2023-06-14T09:45:48;26.00;82.70
52381;DHT22;38310;52.796;6.942;2023-06-14T09:48:14;26.00;82.20
52381;DHT22;38310;52.796;6.942;2023-06-14T09:50:45;25.90;81.20
52381;DHT22;38310;52.796;6.942;2023-06-14T09:53:12;25.80;80.90
52381;DHT22;38310;52.796;6.942;2023-06-14T09:55:40;26.00;82.30
52381;DHT22;38310;52.796;6.942;2023-06-14T09:58:08;25.90;81.10
52381;DHT22;38310;52.796;6.942;2023-06-14T10:00:36;26.10;82.00
52381;DHT22;38310;52.796;6.942;2023-06-14T10:03:13;26.30;81.60
52381;DHT22;38310;52.796;6.942;2023-06-14T10:05:44;26.60;81.60
52381;DHT22;38310;52.796;6.942;2023-06-14T10:08:14;26.80;81.30
52381;DHT22;38310;52.796;6.942;2023-06-14T10:10:43;27.10;82.20
52381;DHT22;38310;52.796;6.942;2023-06-14T10:13:10;26.80;80.70
52381;DHT22;38310;52.796;6.942;2023-06-14T10:21:36;27.30;79.40
52381;DHT22;38310;52.796;6.942;2023-06-14T10:24:07;27.30;79.10
52381;DHT22;38310;52.796;6.942;2023-06-14T10:26:34;27.30;78.70
52381;DHT22;38310;52.796;6.942;2023-06-14T10:29:09;27.40;78.40
52381;DHT22;38310;52.796;6.942;2023-06-14T10:31:46;27.40;76.40
52381;DHT22;38310;52.796;6.942;2023-06-14T10:34:34;27.30;76.70
52381;DHT22;38310;52.796;6.942;2023-06-14T10:39:31;27.40;77.70
52381;DHT22;38310;52.796;6.942;2023-06-14T10:41:58;27.60;77.80
52381;DHT22;38310;52.796;6.942;2023-06-14T10:44:49;27.60;77.60
52381;DHT22;38310;52.796;6.942;2023-06-14T10:50:05;27.70;76.70
52381;DHT22;38310;52.796;6.942;2023-06-14T10:52:38;27.70;77.30
52381;DHT22;38310;52.796;6.942;2023-06-14T10:55:17;27.80;76.90
52381;DHT22;38310;52.796;6.942;2023-06-14T10:57:51;27.90;76.60
52381;DHT22;38310;52.796;6.942;2023-06-14T11:00:22;28.00;75.40
52381;DHT22;38310;52.796;6.942;2023-06-14T11:05:26;27.90;74.90
52381;DHT22;38310;52.796;6.942;2023-06-14T11:08:30;28.00;75.20
52381;DHT22;38310;52.796;6.942;2023-06-14T11:10:59;28.00;75.30
52381;DHT22;38310;52.796;6.942;2023-06-14T11:13:28;27.90;75.50
52381;DHT22;38310;52.796;6.942;2023-06-14T11:15:54;27.90;75.20
52381;DHT22;38310;52.796;6.942;2023-06-14T11:18:22;28.10;75.70
52381;DHT22;38310;52.796;6.942;2023-06-14T11:20:53;28.10;75.60
52381;DHT22;38310;52.796;6.942;2023-06-14T11:23:20;27.90;74.40
52381;DHT22;38310;52.796;6.942;2023-06-14T11:25:52;28.10;75.50
52381;DHT22;38310;52.796;6.942;2023-06-14T11:28:18;28.40;76.20
52381;DHT22;38310;52.796;6.942;2023-06-14T11:30:49;28.20;75.30
52381;DHT22;38310;52.796;6.942;2023-06-14T11:33:18;28.50;74.80
52381;DHT22;38310;52.796;6.942;2023-06-14T11:35:44;28.50;73.90
52381;DHT22;38310;52.796;6.942;2023-06-14T11:38:11;28.10;73.80
52381;DHT22;38310;52.796;6.942;2023-06-14T11:40:38;28.00;73.80
52381;DHT22;38310;52.796;6.942;2023-06-14T11:43:04;27.90;73.90
52381;DHT22;38310;52.796;6.942;2023-06-14T11:45:30;28.00;74.20
52381;DHT22;38310;52.796;6.942;2023-06-14T11:47:58;28.00;74.50
52381;DHT22;38310;52.796;6.942;2023-06-14T11:50:25;28.40;74.10
52381;DHT22;38310;52.796;6.942;2023-06-14T11:52:54;28.40;74.40
52381;DHT22;38310;52.796;6.942;2023-06-14T11:55:22;28.70;74.30
52381;DHT22;38310;52.796;6.942;2023-06-14T11:57:48;29.00;74.30
52381;DHT22;38310;52.796;6.942;2023-06-14T12:00:14;29.00;74.30
52381;DHT22;38310;52.796;6.942;2023-06-14T12:02:41;29.10;74.60
52381;DHT22;38310;52.796;6.942;2023-06-14T12:05:08;29.30;74.30
52381;DHT22;38310;52.796;6.942;2023-06-14T12:07:36;29.40;74.90
52381;DHT22;38310;52.796;6.942;2023-06-14T12:12:28;29.20;72.50
52381;DHT22;38310;52.796;6.942;2023-06-14T12:14:57;29.30;73.40
52381;DHT22;38310;52.796;6.942;2023-06-14T12:17:23;29.40;72.90
52381;DHT22;38310;52.796;6.942;2023-06-14T12:19:49;29.50;73.40
52381;DHT22;38310;52.796;6.942;2023-06-14T12:22:16;29.60;73.60
52381;DHT22;38310;52.796;6.942;2023-06-14T12:24:43;29.40;73.00
52381;DHT22;38310;52.796;6.942;2023-06-14T12:27:09;29.60;73.20
52381;DHT22;38310;52.796;6.942;2023-06-14T12:29:37;29.40;72.60
52381;DHT22;38310;52.796;6.942;2023-06-14T12:32:03;29.80;73.00
52381;DHT22;38310;52.796;6.942;2023-06-14T12:34:29;29.80;73.10
52381;DHT22;38310;52.796;6.942;2023-06-14T12:36:56;29.80;72.80
52381;DHT22;38310;52.796;6.942;2023-06-14T12:39:22;29.90;72.70
52381;DHT22;38310;52.796;6.942;2023-06-14T12:41:48;29.90;72.30
52381;DHT22;38310;52.796;6.942;2023-06-14T12:44:15;29.80;72.00
52381;DHT22;38310;52.796;6.942;2023-06-14T12:46:44;30.00;73.40
52381;DHT22;38310;52.796;6.942;2023-06-14T12:49:10;30.00;72.10
52381;DHT22;38310;52.796;6.942;2023-06-14T12:51:38;30.20;72.50
52381;DHT22;38310;52.796;6.942;2023-06-14T12:54:04;30.40;72.60
52381;DHT22;38310;52.796;6.942;2023-06-14T12:56:30;30.40;72.30
52381;DHT22;38310;52.796;6.942;2023-06-14T12:58:56;29.70;71.80
52381;DHT22;38310;52.796;6.942;2023-06-14T13:01:21;29.70;72.10
52381;DHT22;38310;52.796;6.942;2023-06-14T13:03:47;29.70;72.10
52381;DHT22;38310;52.796;6.942;2023-06-14T13:06:16;29.80;72.20
52381;DHT22;38310;52.796;6.942;2023-06-14T13:08:42;29.90;72.20
52381;DHT22;38310;52.796;6.942;2023-06-14T13:11:08;30.10;72.80
52381;DHT22;38310;52.796;6.942;2023-06-14T13:13:34;30.40;73.00
52381;DHT22;38310;52.796;6.942;2023-06-14T13:16:00;30.40;71.50
52381;DHT22;38310;52.796;6.942;2023-06-14T13:18:26;30.10;71.10
52381;DHT22;38310;52.796;6.942;2023-06-14T13:20:52;30.10;70.70
52381;DHT22;38310;52.796;6.942;2023-06-14T13:23:17;30.20;71.00
52381;DHT22;38310;52.796;6.942;2023-06-14T13:25:44;30.50;71.70
52381;DHT22;38310;52.796;6.942;2023-06-14T13:28:10;30.90;71.30
52381;DHT22;38310;52.796;6.942;2023-06-14T13:30:35;31.10;71.90
52381;DHT22;38310;52.796;6.942;2023-06-14T13:33:01;31.50;71.50
52381;DHT22;38310;52.796;6.942;2023-06-14T13:35:28;31.00;70.80
52381;DHT22;38310;52.796;6.942;2023-06-14T13:37:54;30.60;70.00
52381;DHT22;38310;52.796;6.942;2023-06-14T13:40:20;30.50;71.00
52381;DHT22;38310;52.796;6.942;2023-06-14T13:42:46;30.80;71.20
52381;DHT22;38310;52.796;6.942;2023-06-14T13:45:12;30.60;70.60
52381;DHT22;38310;52.796;6.942;2023-06-14T13:47:38;30.40;70.70
52381;DHT22;38310;52.796;6.942;2023-06-14T13:50:05;30.60;71.20
52381;DHT22;38310;52.796;6.942;2023-06-14T13:52:31;30.60;70.80
52381;DHT22;38310;52.796;6.942;2023-06-14T13:54:57;30.60;70.10
52381;DHT22;38310;52.796;6.942;2023-06-14T13:57:22;30.90;70.10
52381;DHT22;38310;52.796;6.942;2023-06-14T13:59:48;30.70;69.90
52381;DHT22;38310;52.796;6.942;2023-06-14T14:02:15;30.50;69.20
52381;DHT22;38310;52.796;6.942;2023-06-14T14:04:41;30.60;69.60
52381;DHT22;38310;52.796;6.942;2023-06-14T14:07:07;30.50;70.00
52381;DHT22;38310;52.796;6.942;2023-06-14T14:09:33;30.60;69.90
52381;DHT22;38310;52.796;6.942;2023-06-14T14:12:03;30.70;69.40
52381;DHT22;38310;52.796;6.942;2023-06-14T14:14:32;30.90;70.20
52381;DHT22;38310;52.796;6.942;2023-06-14T14:16:58;30.50;69.90
52381;DHT22;38310;52.796;6.942;2023-06-14T14:19:24;30.40;70.00
52381;DHT22;38310;52.796;6.942;2023-06-14T14:21:50;30.40;69.60
52381;DHT22;38310;52.796;6.942;2023-06-14T14:24:16;30.20;69.00
52381;DHT22;38310;52.796;6.942;2023-06-14T14:26:42;30.00;68.80
52381;DHT22;38310;52.796;6.942;2023-06-14T14:29:08;30.10;69.90
52381;DHT22;38310;52.796;6.942;2023-06-14T14:31:36;30.20;68.90
52381;DHT22;38310;52.796;6.942;2023-06-14T14:34:02;30.20;69.20
52381;DHT22;38310;52.796;6.942;2023-06-14T14:36:28;30.30;69.60
52381;DHT22;38310;52.796;6.942;2023-06-14T14:38:54;30.10;68.70
52381;DHT22;38310;52.796;6.942;2023-06-14T14:41:20;30.10;69.60
52381;DHT22;38310;52.796;6.942;2023-06-14T14:43:45;30.10;69.90
52381;DHT22;38310;52.796;6.942;2023-06-14T14:46:11;30.10;69.00
52381;DHT22;38310;52.796;6.942;2023-06-14T14:48:37;29.80;68.70
52381;DHT22;38310;52.796;6.942;2023-06-14T14:51:03;29.60;69.20
52381;DHT22;38310;52.796;6.942;2023-06-14T14:53:29;29.50;70.10
52381;DHT22;38310;52.796;6.942;2023-06-14T14:55:54;29.00;69.20
52381;DHT22;38310;52.796;6.942;2023-06-14T14:58:20;28.90;69.70
52381;DHT22;38310;52.796;6.942;2023-06-14T15:00:46;28.70;69.30
52381;DHT22;38310;52.796;6.942;2023-06-14T15:03:14;28.60;69.50
52381;DHT22;38310;52.796;6.942;2023-06-14T15:05:40;28.60;69.70
52381;DHT22;38310;52.796;6.942;2023-06-14T15:08:06;28.40;69.60
52381;DHT22;38310;52.796;6.942;2023-06-14T15:10:38;28.60;70.50
52381;DHT22;38310;52.796;6.942;2023-06-14T15:13:07;28.50;69.70
52381;DHT22;38310;52.796;6.942;2023-06-14T15:15:36;28.60;69.30
52381;DHT22;38310;52.796;6.942;2023-06-14T15:18:02;28.50;69.20
52381;DHT22;38310;52.796;6.942;2023-06-14T15:20:27;28.20;69.10
52381;DHT22;38310;52.796;6.942;2023-06-14T15:22:54;27.90;68.60
52381;DHT22;38310;52.796;6.942;2023-06-14T15:25:28;28.00;69.20
52381;DHT22;38310;52.796;6.942;2023-06-14T15:27:54;27.70;69.10
52381;DHT22;38310;52.796;6.942;2023-06-14T15:30:20;27.70;69.20
52381;DHT22;38310;52.796;6.942;2023-06-14T15:32:46;27.80;70.10
52381;DHT22;38310;52.796;6.942;2023-06-14T15:35:13;28.00;70.40
52381;DHT22;38310;52.796;6.942;2023-06-14T15:37:39;28.00;69.70
52381;DHT22;38310;52.796;6.942;2023-06-14T15:40:06;27.80;69.10
52381;DHT22;38310;52.796;6.942;2023-06-14T15:42:32;27.80;69.00
52381;DHT22;38310;52.796;6.942;2023-06-14T15:44:58;27.80;69.00
52381;DHT22;38310;52.796;6.942;2023-06-14T15:47:24;27.80;68.80
52381;DHT22;38310;52.796;6.942;2023-06-14T15:49:49;27.70;68.80